Main page
METAR-TAF:

METAR-TAF

Airports :

Wattay International Airport

Vientiane, Laos

latitude: 17-57N, longitude: 102-34E, elevation: 171 m

Current weather observation

The report was made 6 hours and 25 minutes ago, at 16:00 UTC
Wind 2 kt from the North
Temperature 26°C
Humidity 100%
Pressure 1004 hPa
Visibility: 3000 m
Broken clouds at a height of 4000 ft
mist

METAR: VLVT 181600Z 36002KT 3000 BR BKN040 26/26 Q1004 NOSIG

Time: 05:25 (22:25 UTC)

Forecast

The report was made 5 hours and 25 minutes ago, at 17:00 UTC
Forecast valid from 18 at 18 UTC to 19 at 18 UTC
Wind 4 kt from the South/Southeast
Visibility: 8000 m
Scattered clouds at a height of 1600 ft
Broken clouds at a height of 8300 ft
Temporary
from 18 at 18 UTC to 18 at 22 UTC
Visibility: 4000 m
Scattered clouds at a height of 4000 ft
Broken clouds at a height of 8300 ft
mist

TAF: VLVT 181700Z 1818/1918 16004KT 8000 SCT016 BKN083 TEMPO 1818/1822 4000 BR SCT040 BKN083

Weather observations and forecasts of more than 4000 airports (METAR and TAF reports).

The available stations are represented by yellow and red dots on the map.

Hover mouse over dot to see the name of the station.

Then click to see weather observations and forecasts.

To change the map : click on the green buttons with a black cross to zoom in, on the green button with a dash to zoom out, or on the green arrows for adjacent maps.


METAR-TAF: